sensor_id;sensor_type;location;lat;lon;timestamp;P1;durP1;ratioP1;P2;durP2;ratioP2
71838;SDS011;59687;37.520;15.068;2022-09-27T00:02:17;9.68;;;4.75;;
71838;SDS011;59687;37.520;15.068;2022-09-27T00:04:44;9.75;;;4.72;;
71838;SDS011;59687;37.520;15.068;2022-09-27T00:07:11;10.88;;;4.40;;
71838;SDS011;59687;37.520;15.068;2022-09-27T00:09:38;10.88;;;4.32;;
71838;SDS011;59687;37.520;15.068;2022-09-27T00:12:05;9.27;;;4.37;;
71838;SDS011;59687;37.520;15.068;2022-09-27T00:14:32;10.43;;;4.78;;
71838;SDS011;59687;37.520;15.068;2022-09-27T00:17:00;10.13;;;5.00;;
71838;SDS011;59687;37.520;15.068;2022-09-27T00:19:28;13.13;;;4.70;;
71838;SDS011;59687;37.520;15.068;2022-09-27T00:21:55;8.60;;;4.63;;
71838;SDS011;59687;37.520;15.068;2022-09-27T00:24:23;10.13;;;4.53;;
71838;SDS011;59687;37.520;15.068;2022-09-27T00:26:50;8.65;;;3.92;;
71838;SDS011;59687;37.520;15.068;2022-09-27T00:29:17;9.38;;;4.00;;
71838;SDS011;59687;37.520;15.068;2022-09-27T00:31:46;8.52;;;4.38;;
71838;SDS011;59687;37.520;15.068;2022-09-27T00:34:23;9.02;;;3.97;;
71838;SDS011;59687;37.520;15.068;2022-09-27T00:36:51;7.37;;;3.80;;
71838;SDS011;59687;37.520;15.068;2022-09-27T00:39:19;9.88;;;4.10;;
71838;SDS011;59687;37.520;15.068;2022-09-27T00:41:46;9.80;;;4.03;;
71838;SDS011;59687;37.520;15.068;2022-09-27T00:52:22;11.38;;;4.18;;
71838;SDS011;59687;37.520;15.068;2022-09-27T00:54:56;11.05;;;3.60;;
71838;SDS011;59687;37.520;15.068;2022-09-27T00:57:30;8.63;;;4.15;;
71838;SDS011;59687;37.520;15.068;2022-09-27T01:00:04;9.60;;;3.42;;
71838;SDS011;59687;37.520;15.068;2022-09-27T01:02:40;7.07;;;3.53;;
71838;SDS011;59687;37.520;15.068;2022-09-27T01:05:11;9.88;;;3.83;;
71838;SDS011;59687;37.520;15.068;2022-09-27T01:07:40;7.05;;;3.17;;
71838;SDS011;59687;37.520;15.068;2022-09-27T01:10:08;8.93;;;3.30;;
71838;SDS011;59687;37.520;15.068;2022-09-27T01:20:35;8.43;;;3.50;;
71838;SDS011;59687;37.520;15.068;2022-09-27T01:28:35;7.70;;;3.03;;
71838;SDS011;59687;37.520;15.068;2022-09-27T01:43:06;6.77;;;3.03;;
71838;SDS011;59687;37.520;15.068;2022-09-27T01:46:16;8.60;;;3.58;;
71838;SDS011;59687;37.520;15.068;2022-09-27T01:48:57;10.00;;;5.85;;
71838;SDS011;59687;37.520;15.068;2022-09-27T01:51:32;11.10;;;4.45;;
71838;SDS011;59687;37.520;15.068;2022-09-27T01:54:05;9.07;;;3.30;;
71838;SDS011;59687;37.520;15.068;2022-09-27T01:57:05;8.60;;;3.03;;
71838;SDS011;59687;37.520;15.068;2022-09-27T01:59:40;7.28;;;2.80;;
71838;SDS011;59687;37.520;15.068;2022-09-27T02:02:30;7.20;;;2.83;;
71838;SDS011;59687;37.520;15.068;2022-09-27T02:05:20;8.95;;;2.55;;
71838;SDS011;59687;37.520;15.068;2022-09-27T02:07:57;5.70;;;2.85;;
71838;SDS011;59687;37.520;15.068;2022-09-27T02:10:33;6.13;;;3.07;;
71838;SDS011;59687;37.520;15.068;2022-09-27T02:13:20;6.18;;;2.70;;
71838;SDS011;59687;37.520;15.068;2022-09-27T02:18:49;6.93;;;2.45;;
71838;SDS011;59687;37.520;15.068;2022-09-27T02:21:17;6.00;;;2.45;;
71838;SDS011;59687;37.520;15.068;2022-09-27T02:23:47;7.97;;;2.80;;
71838;SDS011;59687;37.520;15.068;2022-09-27T02:26:20;6.78;;;3.00;;
71838;SDS011;59687;37.520;15.068;2022-09-27T02:29:21;6.63;;;3.30;;
71838;SDS011;59687;37.520;15.068;2022-09-27T02:31:54;8.10;;;2.92;;
71838;SDS011;59687;37.520;15.068;2022-09-27T02:34:23;7.03;;;3.10;;
71838;SDS011;59687;37.520;15.068;2022-09-27T02:36:56;6.63;;;2.73;;
71838;SDS011;59687;37.520;15.068;2022-09-27T02:39:24;6.85;;;2.97;;
71838;SDS011;59687;37.520;15.068;2022-09-27T02:42:03;6.38;;;3.05;;
71838;SDS011;59687;37.520;15.068;2022-09-27T02:44:32;9.05;;;4.18;;
71838;SDS011;59687;37.520;15.068;2022-09-27T02:56:29;9.68;;;4.32;;
71838;SDS011;59687;37.520;15.068;2022-09-27T03:02:09;9.93;;;3.55;;
71838;SDS011;59687;37.520;15.068;2022-09-27T03:05:01;10.10;;;4.87;;
71838;SDS011;59687;37.520;15.068;2022-09-27T03:07:31;7.63;;;4.32;;
71838;SDS011;59687;37.520;15.068;2022-09-27T03:10:00;7.95;;;4.85;;
71838;SDS011;59687;37.520;15.068;2022-09-27T03:12:27;7.38;;;3.60;;
71838;SDS011;59687;37.520;15.068;2022-09-27T03:14:57;10.95;;;3.20;;
71838;SDS011;59687;37.520;15.068;2022-09-27T03:17:44;9.40;;;3.30;;
71838;SDS011;59687;37.520;15.068;2022-09-27T03:20:34;8.45;;;3.25;;
71838;SDS011;59687;37.520;15.068;2022-09-27T03:23:07;8.82;;;3.38;;
71838;SDS011;59687;37.520;15.068;2022-09-27T03:25:34;7.93;;;4.30;;
71838;SDS011;59687;37.520;15.068;2022-09-27T03:28:02;9.90;;;3.65;;
71838;SDS011;59687;37.520;15.068;2022-09-27T03:30:33;7.13;;;3.30;;
71838;SDS011;59687;37.520;15.068;2022-09-27T03:33:01;7.65;;;3.90;;
71838;SDS011;59687;37.520;15.068;2022-09-27T03:35:40;8.90;;;3.40;;
71838;SDS011;59687;37.520;15.068;2022-09-27T03:38:10;6.85;;;3.90;;
71838;SDS011;59687;37.520;15.068;2022-09-27T03:40:38;8.75;;;6.40;;
71838;SDS011;59687;37.520;15.068;2022-09-27T03:43:09;9.57;;;7.77;;
71838;SDS011;59687;37.520;15.068;2022-09-27T03:45:36;10.38;;;4.20;;
71838;SDS011;59687;37.520;15.068;2022-09-27T03:48:07;10.07;;;3.72;;
71838;SDS011;59687;37.520;15.068;2022-09-27T03:50:36;10.23;;;3.60;;
71838;SDS011;59687;37.520;15.068;2022-09-27T03:53:03;7.28;;;3.22;;
71838;SDS011;59687;37.520;15.068;2022-09-27T03:55:30;9.30;;;5.43;;
71838;SDS011;59687;37.520;15.068;2022-09-27T03:57:57;9.15;;;3.65;;
71838;SDS011;59687;37.520;15.068;2022-09-27T04:00:25;6.40;;;3.40;;
71838;SDS011;59687;37.520;15.068;2022-09-27T04:02:55;10.63;;;4.60;;
71838;SDS011;59687;37.520;15.068;2022-09-27T04:05:26;8.15;;;3.47;;
71838;SDS011;59687;37.520;15.068;2022-09-27T04:08:11;6.63;;;3.00;;
71838;SDS011;59687;37.520;15.068;2022-09-27T04:10:40;7.82;;;3.00;;
71838;SDS011;59687;37.520;15.068;2022-09-27T04:13:08;8.63;;;3.20;;
71838;SDS011;59687;37.520;15.068;2022-09-27T04:15:42;10.23;;;3.35;;
71838;SDS011;59687;37.520;15.068;2022-09-27T04:18:28;11.15;;;3.28;;
71838;SDS011;59687;37.520;15.068;2022-09-27T04:21:24;7.13;;;3.37;;
71838;SDS011;59687;37.520;15.068;2022-09-27T04:23:52;7.40;;;3.45;;
71838;SDS011;59687;37.520;15.068;2022-09-27T04:26:21;7.65;;;3.78;;
71838;SDS011;59687;37.520;15.068;2022-09-27T04:29:08;7.00;;;3.42;;
71838;SDS011;59687;37.520;15.068;2022-09-27T04:31:45;6.53;;;3.60;;
71838;SDS011;59687;37.520;15.068;2022-09-27T04:34:50;9.27;;;6.93;;
71838;SDS011;59687;37.520;15.068;2022-09-27T04:37:36;7.60;;;4.15;;
71838;SDS011;59687;37.520;15.068;2022-09-27T04:40:03;6.97;;;3.53;;
71838;SDS011;59687;37.520;15.068;2022-09-27T04:42:33;6.57;;;3.30;;
71838;SDS011;59687;37.520;15.068;2022-09-27T04:45:00;8.90;;;3.50;;
71838;SDS011;59687;37.520;15.068;2022-09-27T04:47:27;9.00;;;3.50;;
71838;SDS011;59687;37.520;15.068;2022-09-27T04:49:55;9.77;;;4.60;;
71838;SDS011;59687;37.520;15.068;2022-09-27T04:52:22;14.65;;;5.63;;
71838;SDS011;59687;37.520;15.068;2022-09-27T04:54:50;11.73;;;5.97;;
71838;SDS011;59687;37.520;15.068;2022-09-27T04:57:18;11.68;;;4.90;;
71838;SDS011;59687;37.520;15.068;2022-09-27T04:59:46;9.30;;;4.43;;
71838;SDS011;59687;37.520;15.068;2022-09-27T05:02:13;7.65;;;4.00;;
71838;SDS011;59687;37.520;15.068;2022-09-27T05:04:59;7.80;;;3.90;;
71838;SDS011;59687;37.520;15.068;2022-09-27T05:07:33;7.03;;;3.80;;
71838;SDS011;59687;37.520;15.068;2022-09-27T05:10:06;9.95;;;3.72;;
71838;SDS011;59687;37.520;15.068;2022-09-27T05:12:34;9.80;;;3.70;;
71838;SDS011;59687;37.520;15.068;2022-09-27T05:15:02;8.18;;;3.83;;
71838;SDS011;59687;37.520;15.068;2022-09-27T05:17:52;7.32;;;4.05;;
71838;SDS011;59687;37.520;15.068;2022-09-27T05:20:57;7.82;;;3.75;;
71838;SDS011;59687;37.520;15.068;2022-09-27T05:23:33;8.43;;;3.47;;
71838;SDS011;59687;37.520;15.068;2022-09-27T05:26:04;6.90;;;3.60;;
71838;SDS011;59687;37.520;15.068;2022-09-27T05:28:32;7.60;;;3.20;;
71838;SDS011;59687;37.520;15.068;2022-09-27T05:31:02;9.85;;;2.88;;
71838;SDS011;59687;37.520;15.068;2022-09-27T05:33:29;7.80;;;2.88;;
71838;SDS011;59687;37.520;15.068;2022-09-27T05:36:18;7.72;;;3.50;;
71838;SDS011;59687;37.520;15.068;2022-09-27T05:38:45;8.40;;;4.70;;
71838;SDS011;59687;37.520;15.068;2022-09-27T05:41:12;8.00;;;3.70;;
71838;SDS011;59687;37.520;15.068;2022-09-27T05:43:39;7.20;;;3.05;;
71838;SDS011;59687;37.520;15.068;2022-09-27T05:46:06;9.25;;;3.80;;
71838;SDS011;59687;37.520;15.068;2022-09-27T05:48:36;8.18;;;3.17;;
71838;SDS011;59687;37.520;15.068;2022-09-27T05:51:05;8.50;;;3.40;;
71838;SDS011;59687;37.520;15.068;2022-09-27T05:53:35;8.43;;;3.40;;
71838;SDS011;59687;37.520;15.068;2022-09-27T05:56:05;9.07;;;3.22;;
71838;SDS011;59687;37.520;15.068;2022-09-27T05:58:53;6.40;;;2.63;;
71838;SDS011;59687;37.520;15.068;2022-09-27T06:01:24;6.97;;;3.10;;
71838;SDS011;59687;37.520;15.068;2022-09-27T06:04:03;6.80;;;3.33;;
71838;SDS011;59687;37.520;15.068;2022-09-27T06:06:37;6.60;;;5.40;;
71838;SDS011;59687;37.520;15.068;2022-09-27T06:09:08;8.25;;;3.80;;
71838;SDS011;59687;37.520;15.068;2022-09-27T06:11:38;9.90;;;5.93;;
71838;SDS011;59687;37.520;15.068;2022-09-27T06:14:09;7.03;;;4.20;;
71838;SDS011;59687;37.520;15.068;2022-09-27T06:16:50;10.40;;;4.07;;
71838;SDS011;59687;37.520;15.068;2022-09-27T06:19:22;8.70;;;4.45;;
71838;SDS011;59687;37.520;15.068;2022-09-27T06:21:51;7.63;;;3.40;;
71838;SDS011;59687;37.520;15.068;2022-09-27T06:24:18;8.90;;;3.20;;
71838;SDS011;59687;37.520;15.068;2022-09-27T06:26:45;6.82;;;2.70;;
71838;SDS011;59687;37.520;15.068;2022-09-27T06:29:14;6.07;;;3.10;;
71838;SDS011;59687;37.520;15.068;2022-09-27T06:31:49;7.15;;;2.53;;
71838;SDS011;59687;37.520;15.068;2022-09-27T06:34:26;8.32;;;2.60;;
71838;SDS011;59687;37.520;15.068;2022-09-27T06:36:55;7.18;;;2.75;;
71838;SDS011;59687;37.520;15.068;2022-09-27T06:39:23;8.02;;;2.95;;
71838;SDS011;59687;37.520;15.068;2022-09-27T06:42:00;8.47;;;2.83;;
71838;SDS011;59687;37.520;15.068;2022-09-27T06:44:48;10.18;;;3.05;;
71838;SDS011;59687;37.520;15.068;2022-09-27T06:47:37;8.82;;;3.08;;
71838;SDS011;59687;37.520;15.068;2022-09-27T06:50:31;13.85;;;2.95;;
71838;SDS011;59687;37.520;15.068;2022-09-27T06:53:01;6.78;;;2.60;;
71838;SDS011;59687;37.520;15.068;2022-09-27T06:55:29;6.23;;;2.67;;
71838;SDS011;59687;37.520;15.068;2022-09-27T06:57:57;6.35;;;2.50;;
71838;SDS011;59687;37.520;15.068;2022-09-27T07:01:26;9.77;;;2.88;;
71838;SDS011;59687;37.520;15.068;2022-09-27T07:04:14;9.77;;;2.88;;
71838;SDS011;59687;37.520;15.068;2022-09-27T07:06:56;8.57;;;3.10;;
71838;SDS011;59687;37.520;15.068;2022-09-27T07:09:31;5.70;;;2.53;;
71838;SDS011;59687;37.520;15.068;2022-09-27T07:11:59;6.43;;;2.40;;
71838;SDS011;59687;37.520;15.068;2022-09-27T07:14:26;7.88;;;2.60;;
71838;SDS011;59687;37.520;15.068;2022-09-27T07:16:54;8.20;;;3.90;;
71838;SDS011;59687;37.520;15.068;2022-09-27T07:19:23;7.35;;;2.53;;
71838;SDS011;59687;37.520;15.068;2022-09-27T07:21:51;7.47;;;2.83;;
71838;SDS011;59687;37.520;15.068;2022-09-27T07:24:21;7.75;;;2.90;;
71838;SDS011;59687;37.520;15.068;2022-09-27T07:26:48;8.40;;;2.83;;
71838;SDS011;59687;37.520;15.068;2022-09-27T07:29:18;11.15;;;3.10;;
71838;SDS011;59687;37.520;15.068;2022-09-27T07:31:47;9.25;;;3.50;;
71838;SDS011;59687;37.520;15.068;2022-09-27T07:34:14;7.30;;;3.00;;
71838;SDS011;59687;37.520;15.068;2022-09-27T07:36:44;9.40;;;3.05;;
71838;SDS011;59687;37.520;15.068;2022-09-27T07:39:13;6.80;;;2.70;;
71838;SDS011;59687;37.520;15.068;2022-09-27T07:41:42;6.80;;;2.90;;
71838;SDS011;59687;37.520;15.068;2022-09-27T07:44:11;7.60;;;3.05;;
71838;SDS011;59687;37.520;15.068;2022-09-27T07:47:09;7.90;;;3.00;;
71838;SDS011;59687;37.520;15.068;2022-09-27T07:49:59;6.82;;;2.50;;
71838;SDS011;59687;37.520;15.068;2022-09-27T07:52:46;7.35;;;2.83;;
71838;SDS011;59687;37.520;15.068;2022-09-27T07:55:32;7.60;;;2.35;;
71838;SDS011;59687;37.520;15.068;2022-09-27T07:58:17;9.45;;;2.80;;
71838;SDS011;59687;37.520;15.068;2022-09-27T08:00:46;6.37;;;2.70;;
71838;SDS011;59687;37.520;15.068;2022-09-27T08:03:14;7.13;;;2.60;;
71838;SDS011;59687;37.520;15.068;2022-09-27T08:05:45;8.13;;;2.55;;
71838;SDS011;59687;37.520;15.068;2022-09-27T08:08:14;6.15;;;2.40;;
71838;SDS011;59687;37.520;15.068;2022-09-27T08:10:45;9.13;;;2.60;;
71838;SDS011;59687;37.520;15.068;2022-09-27T08:13:15;9.83;;;2.70;;
71838;SDS011;59687;37.520;15.068;2022-09-27T08:15:46;6.22;;;2.53;;
71838;SDS011;59687;37.520;15.068;2022-09-27T08:18:14;9.07;;;2.50;;
71838;SDS011;59687;37.520;15.068;2022-09-27T08:20:54;7.40;;;2.35;;
71838;SDS011;59687;37.520;15.068;2022-09-27T08:23:34;5.25;;;2.10;;
71838;SDS011;59687;37.520;15.068;2022-09-27T08:26:27;6.67;;;2.20;;
71838;SDS011;59687;37.520;15.068;2022-09-27T08:29:14;8.73;;;2.75;;
71838;SDS011;59687;37.520;15.068;2022-09-27T08:31:52;5.75;;;2.13;;
71838;SDS011;59687;37.520;15.068;2022-09-27T08:34:20;6.18;;;2.20;;
71838;SDS011;59687;37.520;15.068;2022-09-27T08:36:47;6.65;;;2.30;;
71838;SDS011;59687;37.520;15.068;2022-09-27T08:39:15;5.53;;;2.70;;
71838;SDS011;59687;37.520;15.068;2022-09-27T08:47:26;7.95;;;2.30;;
71838;SDS011;59687;37.520;15.068;2022-09-27T08:50:00;7.63;;;2.67;;
71838;SDS011;59687;37.520;15.068;2022-09-27T08:52:47;6.07;;;2.57;;
71838;SDS011;59687;37.520;15.068;2022-09-27T08:55:30;8.15;;;2.40;;
71838;SDS011;59687;37.520;15.068;2022-09-27T09:00:48;6.18;;;2.30;;
71838;SDS011;59687;37.520;15.068;2022-09-27T09:03:21;7.05;;;2.33;;
71838;SDS011;59687;37.520;15.068;2022-09-27T09:09:12;6.53;;;2.40;;
71838;SDS011;59687;37.520;15.068;2022-09-27T09:21:26;4.80;;;2.40;;
71838;SDS011;59687;37.520;15.068;2022-09-27T09:29:37;6.13;;;2.33;;
71838;SDS011;59687;37.520;15.068;2022-09-27T09:32:27;5.85;;;2.50;;
71838;SDS011;59687;37.520;15.068;2022-09-27T09:35:19;5.13;;;2.03;;
71838;SDS011;59687;37.520;15.068;2022-09-27T09:37:58;6.07;;;2.53;;
71838;SDS011;59687;37.520;15.068;2022-09-27T09:45:51;6.68;;;1.90;;
71838;SDS011;59687;37.520;15.068;2022-09-27T09:48:44;4.23;;;2.00;;
71838;SDS011;59687;37.520;15.068;2022-09-27T09:51:22;5.57;;;2.15;;
71838;SDS011;59687;37.520;15.068;2022-09-27T09:53:59;5.88;;;2.22;;
71838;SDS011;59687;37.520;15.068;2022-09-27T09:56:37;5.75;;;2.25;;
71838;SDS011;59687;37.520;15.068;2022-09-27T09:59:15;6.30;;;2.40;;
71838;SDS011;59687;37.520;15.068;2022-09-27T10:01:51;4.77;;;2.00;;
71838;SDS011;59687;37.520;15.068;2022-09-27T10:04:25;5.47;;;2.22;;
71838;SDS011;59687;37.520;15.068;2022-09-27T10:06:56;4.68;;;2.00;;
71838;SDS011;59687;37.520;15.068;2022-09-27T10:09:29;6.22;;;2.40;;
71838;SDS011;59687;37.520;15.068;2022-09-27T10:12:15;4.93;;;2.08;;
71838;SDS011;59687;37.520;15.068;2022-09-27T10:14:52;5.80;;;2.00;;
71838;SDS011;59687;37.520;15.068;2022-09-27T10:17:22;5.57;;;2.05;;
71838;SDS011;59687;37.520;15.068;2022-09-27T10:19:54;6.82;;;2.03;;
71838;SDS011;59687;37.520;15.068;2022-09-27T10:22:30;7.30;;;2.08;;
71838;SDS011;59687;37.520;15.068;2022-09-27T10:25:12;5.88;;;2.38;;
71838;SDS011;59687;37.520;15.068;2022-09-27T10:27:52;5.63;;;2.27;;
71838;SDS011;59687;37.520;15.068;2022-09-27T10:30:30;6.18;;;2.00;;
71838;SDS011;59687;37.520;15.068;2022-09-27T10:33:05;4.72;;;1.83;;
71838;SDS011;59687;37.520;15.068;2022-09-27T10:35:44;4.75;;;2.30;;
71838;SDS011;59687;37.520;15.068;2022-09-27T10:38:25;4.70;;;1.90;;
71838;SDS011;59687;37.520;15.068;2022-09-27T10:44:24;5.32;;;1.92;;
71838;SDS011;59687;37.520;15.068;2022-09-27T10:47:20;4.70;;;1.70;;
71838;SDS011;59687;37.520;15.068;2022-09-27T10:50:03;5.72;;;2.00;;
71838;SDS011;59687;37.520;15.068;2022-09-27T10:53:05;5.78;;;2.10;;
71838;SDS011;59687;37.520;15.068;2022-09-27T10:55:42;4.13;;;1.60;;
71838;SDS011;59687;37.520;15.068;2022-09-27T10:58:19;4.93;;;1.85;;
71838;SDS011;59687;37.520;15.068;2022-09-27T11:01:09;5.43;;;1.92;;
71838;SDS011;59687;37.520;15.068;2022-09-27T11:04:01;4.38;;;1.60;;
71838;SDS011;59687;37.520;15.068;2022-09-27T11:06:31;5.28;;;1.42;;
71838;SDS011;59687;37.520;15.068;2022-09-27T11:09:10;5.47;;;2.07;;
71838;SDS011;59687;37.520;15.068;2022-09-27T11:11:47;4.38;;;1.88;;
71838;SDS011;59687;37.520;15.068;2022-09-27T11:14:21;5.22;;;1.55;;
71838;SDS011;59687;37.520;15.068;2022-09-27T11:36:54;4.33;;;1.50;;
71838;SDS011;59687;37.520;15.068;2022-09-27T11:45:47;5.82;;;1.65;;
71838;SDS011;59687;37.520;15.068;2022-09-27T11:57:32;4.60;;;1.35;;
71838;SDS011;59687;37.520;15.068;2022-09-27T12:00:18;4.35;;;1.30;;
71838;SDS011;59687;37.520;15.068;2022-09-27T12:08:47;3.70;;;1.10;;
71838;SDS011;59687;37.520;15.068;2022-09-27T12:11:33;3.63;;;1.10;;
71838;SDS011;59687;37.520;15.068;2022-09-27T12:16:45;4.75;;;0.98;;
71838;SDS011;59687;37.520;15.068;2022-09-27T12:19:18;3.93;;;1.10;;
71838;SDS011;59687;37.520;15.068;2022-09-27T12:22:04;3.10;;;1.00;;
71838;SDS011;59687;37.520;15.068;2022-09-27T12:24:46;5.03;;;1.20;;
71838;SDS011;59687;37.520;15.068;2022-09-27T12:27:35;3.50;;;1.20;;
71838;SDS011;59687;37.520;15.068;2022-09-27T12:30:11;3.92;;;1.02;;
71838;SDS011;59687;37.520;15.068;2022-09-27T12:32:55;4.40;;;1.30;;
71838;SDS011;59687;37.520;15.068;2022-09-27T12:35:47;3.80;;;1.20;;
71838;SDS011;59687;37.520;15.068;2022-09-27T12:38:21;3.17;;;1.20;;
71838;SDS011;59687;37.520;15.068;2022-09-27T12:41:05;3.20;;;1.00;;
71838;SDS011;59687;37.520;15.068;2022-09-27T12:43:48;3.03;;;0.95;;
71838;SDS011;59687;37.520;15.068;2022-09-27T12:52:08;4.00;;;1.00;;
71838;SDS011;59687;37.520;15.068;2022-09-27T12:57:29;3.03;;;0.80;;
71838;SDS011;59687;37.520;15.068;2022-09-27T13:00:21;4.53;;;1.20;;
71838;SDS011;59687;37.520;15.068;2022-09-27T13:09:41;3.40;;;0.95;;
71838;SDS011;59687;37.520;15.068;2022-09-27T13:12:10;3.88;;;1.00;;
71838;SDS011;59687;37.520;15.068;2022-09-27T13:20:40;5.07;;;1.10;;
71838;SDS011;59687;37.520;15.068;2022-09-27T13:26:01;4.30;;;1.42;;
71838;SDS011;59687;37.520;15.068;2022-09-27T13:34:39;3.70;;;1.00;;
71838;SDS011;59687;37.520;15.068;2022-09-27T13:37:38;3.42;;;1.00;;
71838;SDS011;59687;37.520;15.068;2022-09-27T13:43:07;5.53;;;1.23;;
71838;SDS011;59687;37.520;15.068;2022-09-27T13:45:59;3.75;;;0.90;;
71838;SDS011;59687;37.520;15.068;2022-09-27T13:54:58;3.30;;;0.90;;
71838;SDS011;59687;37.520;15.068;2022-09-27T13:57:37;4.43;;;1.30;;
71838;SDS011;59687;37.520;15.068;2022-09-27T14:00:21;4.03;;;1.10;;
71838;SDS011;59687;37.520;15.068;2022-09-27T14:05:54;3.63;;;1.20;;
71838;SDS011;59687;37.520;15.068;2022-09-27T14:08:36;3.10;;;0.90;;
71838;SDS011;59687;37.520;15.068;2022-09-27T14:11:29;3.07;;;1.10;;
71838;SDS011;59687;37.520;15.068;2022-09-27T14:14:00;5.68;;;1.30;;
71838;SDS011;59687;37.520;15.068;2022-09-27T14:16:35;3.88;;;1.05;;
71838;SDS011;59687;37.520;15.068;2022-09-27T14:19:12;4.72;;;1.20;;
71838;SDS011;59687;37.520;15.068;2022-09-27T14:21:44;4.18;;;1.00;;
71838;SDS011;59687;37.520;15.068;2022-09-27T14:24:43;5.00;;;1.27;;
71838;SDS011;59687;37.520;15.068;2022-09-27T14:27:36;5.10;;;1.00;;
71838;SDS011;59687;37.520;15.068;2022-09-27T14:30:22;3.90;;;1.30;;
71838;SDS011;59687;37.520;15.068;2022-09-27T14:33:32;3.95;;;1.25;;
71838;SDS011;59687;37.520;15.068;2022-09-27T14:36:13;4.20;;;1.10;;
71838;SDS011;59687;37.520;15.068;2022-09-27T14:39:12;3.37;;;1.00;;
71838;SDS011;59687;37.520;15.068;2022-09-27T14:41:58;5.30;;;1.33;;
71838;SDS011;59687;37.520;15.068;2022-09-27T14:44:28;4.13;;;1.10;;
71838;SDS011;59687;37.520;15.068;2022-09-27T14:47:07;3.45;;;1.00;;
71838;SDS011;59687;37.520;15.068;2022-09-27T14:49:38;7.10;;;2.42;;
71838;SDS011;59687;37.520;15.068;2022-09-27T14:52:23;7.17;;;2.13;;
71838;SDS011;59687;37.520;15.068;2022-09-27T14:55:04;5.00;;;1.90;;
71838;SDS011;59687;37.520;15.068;2022-09-27T14:57:50;5.65;;;1.92;;
71838;SDS011;59687;37.520;15.068;2022-09-27T15:00:21;6.82;;;2.80;;
71838;SDS011;59687;37.520;15.068;2022-09-27T15:02:54;5.68;;;1.83;;
71838;SDS011;59687;37.520;15.068;2022-09-27T15:05:29;6.40;;;2.00;;
71838;SDS011;59687;37.520;15.068;2022-09-27T15:08:01;6.60;;;1.90;;
71838;SDS011;59687;37.520;15.068;2022-09-27T15:10:33;6.28;;;1.85;;
71838;SDS011;59687;37.520;15.068;2022-09-27T15:13:04;6.55;;;2.35;;
71838;SDS011;59687;37.520;15.068;2022-09-27T15:15:33;8.85;;;1.92;;
71838;SDS011;59687;37.520;15.068;2022-09-27T15:18:28;9.37;;;2.47;;
71838;SDS011;59687;37.520;15.068;2022-09-27T15:20:58;7.47;;;1.92;;
71838;SDS011;59687;37.520;15.068;2022-09-27T15:23:32;6.20;;;1.95;;
71838;SDS011;59687;37.520;15.068;2022-09-27T15:26:18;5.50;;;1.85;;
71838;SDS011;59687;37.520;15.068;2022-09-27T15:28:52;8.60;;;2.40;;
71838;SDS011;59687;37.520;15.068;2022-09-27T15:31:33;10.07;;;2.70;;
71838;SDS011;59687;37.520;15.068;2022-09-27T15:34:03;8.55;;;2.53;;
71838;SDS011;59687;37.520;15.068;2022-09-27T15:39:27;8.00;;;2.30;;
71838;SDS011;59687;37.520;15.068;2022-09-27T15:52:51;5.93;;;2.10;;
71838;SDS011;59687;37.520;15.068;2022-09-27T15:55:23;8.15;;;2.28;;
71838;SDS011;59687;37.520;15.068;2022-09-27T15:58:02;6.17;;;2.40;;
71838;SDS011;59687;37.520;15.068;2022-09-27T16:00:56;6.35;;;2.25;;
71838;SDS011;59687;37.520;15.068;2022-09-27T16:03:25;7.07;;;2.13;;
71838;SDS011;59687;37.520;15.068;2022-09-27T16:05:57;8.02;;;2.75;;
71838;SDS011;59687;37.520;15.068;2022-09-27T16:08:28;8.60;;;2.22;;
71838;SDS011;59687;37.520;15.068;2022-09-27T16:10:57;7.77;;;2.40;;
71838;SDS011;59687;37.520;15.068;2022-09-27T16:13:27;6.93;;;2.47;;
71838;SDS011;59687;37.520;15.068;2022-09-27T16:16:03;6.07;;;2.30;;
71838;SDS011;59687;37.520;15.068;2022-09-27T16:18:30;6.82;;;2.47;;
71838;SDS011;59687;37.520;15.068;2022-09-27T16:21:00;6.13;;;2.50;;
71838;SDS011;59687;37.520;15.068;2022-09-27T16:23:27;7.17;;;2.30;;
71838;SDS011;59687;37.520;15.068;2022-09-27T16:25:55;8.55;;;2.80;;
71838;SDS011;59687;37.520;15.068;2022-09-27T16:28:25;9.10;;;2.65;;
71838;SDS011;59687;37.520;15.068;2022-09-27T16:30:53;9.98;;;3.10;;
71838;SDS011;59687;37.520;15.068;2022-09-27T16:33:25;9.13;;;2.60;;
71838;SDS011;59687;37.520;15.068;2022-09-27T16:35:58;7.23;;;2.47;;
71838;SDS011;59687;37.520;15.068;2022-09-27T16:38:29;7.53;;;2.15;;
71838;SDS011;59687;37.520;15.068;2022-09-27T16:41:00;10.88;;;3.17;;
71838;SDS011;59687;37.520;15.068;2022-09-27T16:43:28;8.13;;;2.75;;
71838;SDS011;59687;37.520;15.068;2022-09-27T16:46:05;6.88;;;2.20;;
71838;SDS011;59687;37.520;15.068;2022-09-27T16:48:38;7.70;;;2.50;;
71838;SDS011;59687;37.520;15.068;2022-09-27T16:51:16;6.20;;;2.10;;
71838;SDS011;59687;37.520;15.068;2022-09-27T16:54:03;6.88;;;2.67;;
71838;SDS011;59687;37.520;15.068;2022-09-27T16:56:33;9.05;;;2.30;;
71838;SDS011;59687;37.520;15.068;2022-09-27T16:59:01;6.78;;;2.20;;
71838;SDS011;59687;37.520;15.068;2022-09-27T17:01:33;12.57;;;2.50;;
71838;SDS011;59687;37.520;15.068;2022-09-27T17:04:00;8.90;;;2.60;;
71838;SDS011;59687;37.520;15.068;2022-09-27T17:06:27;7.63;;;2.60;;
71838;SDS011;59687;37.520;15.068;2022-09-27T17:08:54;8.48;;;2.63;;
71838;SDS011;59687;37.520;15.068;2022-09-27T17:11:22;10.18;;;3.30;;
71838;SDS011;59687;37.520;15.068;2022-09-27T17:13:52;7.73;;;2.77;;
71838;SDS011;59687;37.520;15.068;2022-09-27T17:16:20;8.90;;;2.45;;
71838;SDS011;59687;37.520;15.068;2022-09-27T17:18:51;7.00;;;2.20;;
71838;SDS011;59687;37.520;15.068;2022-09-27T17:21:19;12.45;;;2.53;;
71838;SDS011;59687;37.520;15.068;2022-09-27T17:23:46;7.18;;;2.08;;
71838;SDS011;59687;37.520;15.068;2022-09-27T17:28:46;6.38;;;2.13;;
71838;SDS011;59687;37.520;15.068;2022-09-27T17:31:16;8.52;;;3.03;;
71838;SDS011;59687;37.520;15.068;2022-09-27T17:33:45;10.20;;;3.35;;
71838;SDS011;59687;37.520;15.068;2022-09-27T17:36:14;8.35;;;2.80;;
71838;SDS011;59687;37.520;15.068;2022-09-27T17:38:49;10.63;;;3.20;;
71838;SDS011;59687;37.520;15.068;2022-09-27T17:41:20;9.20;;;3.20;;
71838;SDS011;59687;37.520;15.068;2022-09-27T17:43:54;11.43;;;3.50;;
71838;SDS011;59687;37.520;15.068;2022-09-27T17:46:24;10.07;;;2.72;;
71838;SDS011;59687;37.520;15.068;2022-09-27T17:48:53;8.48;;;2.97;;
71838;SDS011;59687;37.520;15.068;2022-09-27T17:51:39;9.53;;;2.23;;
71838;SDS011;59687;37.520;15.068;2022-09-27T17:54:07;8.88;;;3.05;;
71838;SDS011;59687;37.520;15.068;2022-09-27T17:56:36;8.65;;;2.58;;
71838;SDS011;59687;37.520;15.068;2022-09-27T17:59:04;7.22;;;2.45;;
71838;SDS011;59687;37.520;15.068;2022-09-27T18:01:33;7.57;;;2.50;;
71838;SDS011;59687;37.520;15.068;2022-09-27T18:04:07;7.80;;;2.60;;
71838;SDS011;59687;37.520;15.068;2022-09-27T18:06:42;9.93;;;2.90;;
71838;SDS011;59687;37.520;15.068;2022-09-27T18:09:12;10.55;;;3.40;;
71838;SDS011;59687;37.520;15.068;2022-09-27T18:11:41;10.32;;;3.22;;
71838;SDS011;59687;37.520;15.068;2022-09-27T18:14:09;11.85;;;3.35;;
71838;SDS011;59687;37.520;15.068;2022-09-27T18:16:39;9.60;;;3.10;;
71838;SDS011;59687;37.520;15.068;2022-09-27T18:19:13;11.32;;;4.18;;
71838;SDS011;59687;37.520;15.068;2022-09-27T18:21:42;8.52;;;3.90;;
71838;SDS011;59687;37.520;15.068;2022-09-27T18:24:09;7.53;;;3.50;;
71838;SDS011;59687;37.520;15.068;2022-09-27T18:26:36;9.23;;;3.50;;
71838;SDS011;59687;37.520;15.068;2022-09-27T18:29:05;9.83;;;4.43;;